Terminal Aerodrome Forecast
Issued by NWS Melbourne, FL

Home | Current Version | Previous Version | Text Only | Print | Product List | Glossary On
Versions: 1 2 3 4 5 6 7 8 9 10 11 12 13 14 15 16 17 18 19 20 21 22 23 24
000
FTUS42 KMLB 231748 CCA
TAFMCO
TAF COR
KMCO 231748Z 2318/2424 23010G16KT P6SM SCT025 BKN040
     FM232300 31007KT P6SM SCT010 BKN020
     FM240600 35007KT P6SM SCT025 SCT200
     FM241800 01008KT P6SM FEW150 SCT250=

USA.gov is the U.S. government's official web portal to all federal, state and local government web resources and services.